createdAt,value
2023-04-22T00:02:09.314Z,28.43
2023-04-22T00:04:37.989Z,28.38
2023-04-22T00:07:06.471Z,28.35
2023-04-22T00:09:34.736Z,28.34
2023-04-22T00:12:03.150Z,28.31
2023-04-22T00:14:31.479Z,28.28
2023-04-22T00:17:00.424Z,28.25
2023-04-22T00:19:29.222Z,28.20
2023-04-22T00:21:57.530Z,28.17
2023-04-22T00:24:25.879Z,28.15
2023-04-22T00:26:54.135Z,28.12
2023-04-22T00:29:22.378Z,28.07
2023-04-22T00:31:50.804Z,28.04
2023-04-22T00:34:19.804Z,28.01
2023-04-22T00:36:48.118Z,27.98
2023-04-22T00:39:16.397Z,27.95
2023-04-22T00:41:44.821Z,27.94
2023-04-22T00:44:13.326Z,27.89
2023-04-22T00:46:41.556Z,27.86
2023-04-22T00:49:10.059Z,27.82
2023-04-22T00:51:38.254Z,27.79
2023-04-22T00:54:06.741Z,27.76
2023-04-22T00:56:36.321Z,27.72
2023-04-22T00:59:04.880Z,27.69
2023-04-22T01:01:33.502Z,27.71
2023-04-22T01:04:02.246Z,27.72
2023-04-22T01:06:33.771Z,27.80
2023-04-22T01:09:02.070Z,27.90
2023-04-22T01:11:30.389Z,28.00
2023-04-22T01:13:58.674Z,28.09
2023-04-22T01:16:29.086Z,28.16
2023-04-22T01:18:57.608Z,28.23
2023-04-22T01:21:27.120Z,28.30
2023-04-22T01:23:55.628Z,28.36
2023-04-22T01:26:23.847Z,28.40
2023-04-22T01:28:52.294Z,28.46
2023-04-22T01:31:20.865Z,28.48
2023-04-22T01:33:49.690Z,28.52
2023-04-22T01:36:18.196Z,28.53
2023-04-22T01:38:46.483Z,28.55
2023-04-22T01:41:15.151Z,28.56
2023-04-22T01:43:43.715Z,28.56
2023-04-22T01:46:11.978Z,28.53
2023-04-22T01:48:40.757Z,28.55
2023-04-22T01:51:09.020Z,28.54
2023-04-22T01:53:37.257Z,28.53
2023-04-22T01:56:05.724Z,28.51
2023-04-22T01:58:33.969Z,28.49
2023-04-22T02:01:02.135Z,28.48
2023-04-22T02:03:30.598Z,28.44
2023-04-22T02:05:58.900Z,28.41
2023-04-22T02:08:27.182Z,28.40
2023-04-22T02:10:55.586Z,28.38
2023-04-22T02:13:23.798Z,28.35
2023-04-22T02:15:52.115Z,28.32
2023-04-22T02:18:20.348Z,28.27
2023-04-22T02:20:48.884Z,28.24
2023-04-22T02:23:17.164Z,28.22
2023-04-22T02:25:52.517Z,28.17
2023-04-22T02:28:20.832Z,28.17
2023-04-22T02:30:49.138Z,28.12
2023-04-22T02:33:17.361Z,28.08
2023-04-22T02:35:45.928Z,28.08
2023-04-22T02:38:14.109Z,28.03
2023-04-22T02:40:42.347Z,28.01
2023-04-22T02:43:10.631Z,27.96
2023-04-22T02:45:41.024Z,27.95
2023-04-22T02:48:09.260Z,27.92
2023-04-22T02:50:37.585Z,27.89
2023-04-22T02:53:05.906Z,27.84
2023-04-22T02:55:34.122Z,27.80
2023-04-22T02:58:02.391Z,27.77
2023-04-22T03:00:30.771Z,27.76
2023-04-22T03:02:59.202Z,27.72
2023-04-22T03:05:27.821Z,27.69
2023-04-22T03:07:56.083Z,27.66
2023-04-22T03:10:24.233Z,27.64
2023-04-22T03:12:52.498Z,27.62
2023-04-22T03:15:21.633Z,27.63
2023-04-22T03:17:50.196Z,27.70
2023-04-22T03:20:18.479Z,27.78
2023-04-22T03:22:46.724Z,27.88
2023-04-22T03:25:15.050Z,27.98
2023-04-22T03:27:43.261Z,28.06
2023-04-22T03:30:11.732Z,28.15
2023-04-22T03:32:39.943Z,28.24
2023-04-22T03:35:08.536Z,28.28
2023-04-22T03:37:36.776Z,28.33
2023-04-22T03:40:06.021Z,28.39
2023-04-22T03:42:34.209Z,28.41
2023-04-22T03:45:02.386Z,28.47
2023-04-22T03:47:30.648Z,28.49
2023-04-22T03:49:58.862Z,28.49
2023-04-22T03:52:27.091Z,28.49
2023-04-22T03:54:55.302Z,28.51
2023-04-22T03:57:23.545Z,28.54
2023-04-22T03:59:51.852Z,28.52
2023-04-22T04:02:20.088Z,28.53
2023-04-22T04:04:48.621Z,28.52
2023-04-22T04:07:17.325Z,28.49
2023-04-22T04:09:45.515Z,28.48
2023-04-22T04:12:13.735Z,28.48
2023-04-22T04:14:41.900Z,28.44
2023-04-22T04:17:10.286Z,28.41
2023-04-22T04:19:38.680Z,28.39
2023-04-22T04:22:07.109Z,28.38
2023-04-22T04:24:36.854Z,28.37
2023-04-22T04:27:05.060Z,28.32
2023-04-22T04:29:33.260Z,28.30
2023-04-22T04:32:01.685Z,28.25
2023-04-22T04:34:29.873Z,28.17
2023-04-22T04:36:59.026Z,27.97
2023-04-22T04:39:29.368Z,27.78
2023-04-22T04:41:59.015Z,27.62
2023-04-22T04:44:27.711Z,27.46
2023-04-22T04:46:56.404Z,27.32
2023-04-22T04:49:24.647Z,27.20
2023-04-22T04:51:52.938Z,27.11
2023-04-22T04:54:21.212Z,27.02
2023-04-22T04:56:49.523Z,26.99
2023-04-22T04:59:17.756Z,27.02
2023-04-22T05:01:46.093Z,27.06
2023-04-22T05:04:14.633Z,27.10
2023-04-22T05:06:43.102Z,27.18
2023-04-22T05:09:11.541Z,27.28
2023-04-22T05:11:39.778Z,27.42
2023-04-22T05:14:08.064Z,27.58
2023-04-22T05:16:36.534Z,27.71
2023-04-22T05:19:04.785Z,27.87
2023-04-22T05:21:33.010Z,27.98
2023-04-22T05:24:01.539Z,28.07
2023-04-22T05:26:29.868Z,28.14
2023-04-22T05:28:58.161Z,28.22
2023-04-22T05:31:26.456Z,28.25
2023-04-22T05:33:54.647Z,28.27
2023-04-22T05:36:22.834Z,28.30
2023-04-22T05:38:51.006Z,28.30
2023-04-22T05:41:19.148Z,28.31
2023-04-22T05:43:47.361Z,28.32
2023-04-22T05:46:15.679Z,28.30
2023-04-22T05:48:43.857Z,28.31
2023-04-22T05:51:12.152Z,28.29
2023-04-22T05:53:40.566Z,28.29
2023-04-22T05:56:08.855Z,28.27
2023-04-22T05:58:37.903Z,28.26
2023-04-22T06:01:06.156Z,28.27
2023-04-22T06:03:34.698Z,28.26
2023-04-22T06:06:03.279Z,28.22
2023-04-22T06:08:32.168Z,28.21
2023-04-22T06:11:00.432Z,28.18
2023-04-22T06:13:28.668Z,28.17
2023-04-22T06:15:56.963Z,28.14
2023-04-22T06:18:26.505Z,28.14
2023-04-22T06:20:56.025Z,28.13
2023-04-22T06:23:24.224Z,28.11
2023-04-22T06:25:52.555Z,28.10
2023-04-22T06:28:21.261Z,28.05
2023-04-22T06:30:49.596Z,28.05
2023-04-22T06:33:17.871Z,28.03
2023-04-22T06:35:46.152Z,28.01
2023-04-22T06:38:14.622Z,27.98
2023-04-22T06:40:43.858Z,27.95
2023-04-22T06:43:12.201Z,27.94
2023-04-22T06:45:40.628Z,27.90
2023-04-22T06:48:08.925Z,27.88
2023-04-22T06:50:37.205Z,27.85
2023-04-22T06:53:05.507Z,27.82
2023-04-22T06:55:33.707Z,27.81
2023-04-22T06:58:01.981Z,27.79
2023-04-22T07:00:30.253Z,27.77
2023-04-22T07:02:58.671Z,27.74
2023-04-22T07:05:27.121Z,27.72
2023-04-22T07:07:55.278Z,27.71
2023-04-22T07:10:23.536Z,27.68
2023-04-22T07:12:51.743Z,27.65
2023-04-22T07:15:20.089Z,27.62
2023-04-22T07:17:48.363Z,27.60
2023-04-22T07:20:16.571Z,27.58
2023-04-22T07:22:44.848Z,27.57
2023-04-22T07:25:13.015Z,27.55
2023-04-22T07:27:41.310Z,27.54
2023-04-22T07:30:11.688Z,27.52
2023-04-22T07:32:39.996Z,27.50
2023-04-22T07:35:08.846Z,27.49
2023-04-22T07:37:37.047Z,27.47
2023-04-22T07:40:06.149Z,27.45
2023-04-22T07:42:34.363Z,27.44
2023-04-22T07:45:02.796Z,27.42
2023-04-22T07:47:31.019Z,27.41
2023-04-22T07:49:59.534Z,27.39
2023-04-22T07:52:27.835Z,27.39
2023-04-22T07:54:56.482Z,27.38
2023-04-22T07:57:24.926Z,27.36
2023-04-22T07:59:53.204Z,27.36
2023-04-22T08:02:21.676Z,27.34
2023-04-22T08:04:50.081Z,27.33
2023-04-22T08:07:32.669Z,27.32
2023-04-22T08:10:01.860Z,27.37
2023-04-22T08:12:30.073Z,27.29
2023-04-22T08:14:58.764Z,27.29
2023-04-22T08:17:27.101Z,27.26
2023-04-22T08:19:55.300Z,27.26
2023-04-22T08:22:24.233Z,27.26
2023-04-22T08:24:52.444Z,27.25
2023-04-22T08:27:22.406Z,27.24
2023-04-22T08:29:50.716Z,27.25
2023-04-22T08:32:20.132Z,27.24
2023-04-22T08:37:18.881Z,27.25
2023-04-22T08:39:47.094Z,27.25
2023-04-22T08:42:16.099Z,27.26
2023-04-22T08:44:45.876Z,27.24
2023-04-22T08:47:15.666Z,27.26
2023-04-22T08:49:44.265Z,27.27
2023-04-22T08:52:15.461Z,27.27
2023-04-22T08:54:43.865Z,27.27
2023-04-22T08:57:13.376Z,27.28
2023-04-22T08:59:42.058Z,27.27
2023-04-22T09:02:18.236Z,27.28
2023-04-22T09:04:48.656Z,27.30
2023-04-22T09:07:25.802Z,27.28
2023-04-22T09:09:57.566Z,27.31
2023-04-22T09:12:26.055Z,27.29
2023-04-22T09:14:54.889Z,27.29
2023-04-22T09:17:33.625Z,27.31
2023-04-22T09:20:04.760Z,27.35
2023-04-22T09:22:47.888Z,27.33
2023-04-22T09:25:17.623Z,27.38
2023-04-22T09:27:53.497Z,27.34
2023-04-22T09:30:29.973Z,27.36
2023-04-22T09:32:59.824Z,27.37
2023-04-22T09:35:30.122Z,27.35
2023-04-22T09:37:59.916Z,27.35
2023-04-22T09:40:29.904Z,27.36
2023-04-22T09:43:00.789Z,27.35
2023-04-22T09:45:29.934Z,27.36
2023-04-22T09:48:01.164Z,27.35
2023-04-22T09:50:29.515Z,27.37
2023-04-22T09:53:00.564Z,27.36
2023-04-22T09:55:31.104Z,27.36
2023-04-22T09:58:09.395Z,27.36
2023-04-22T10:00:47.268Z,27.40
2023-04-22T10:03:16.033Z,27.41
2023-04-22T10:05:45.922Z,27.36
2023-04-22T10:08:15.789Z,27.36
2023-04-22T10:10:46.345Z,27.35
2023-04-22T10:13:14.649Z,27.34
2023-04-22T10:15:46.304Z,27.32
2023-04-22T10:18:19.544Z,27.35
2023-04-22T10:20:48.267Z,27.37
2023-04-22T10:23:19.809Z,27.34
2023-04-22T10:25:53.992Z,27.37
2023-04-22T10:28:23.726Z,27.39
2023-04-22T10:30:51.945Z,27.37
2023-04-22T10:33:34.103Z,27.38
2023-04-22T10:36:09.481Z,27.46
2023-04-22T10:39:00.709Z,27.41
2023-04-22T10:41:34.641Z,27.53
2023-04-22T10:44:09.079Z,27.42
2023-04-22T10:46:42.524Z,27.40
2023-04-22T10:49:12.147Z,27.40
2023-04-22T10:51:54.357Z,27.38
2023-04-22T10:54:31.954Z,27.44
2023-04-22T10:57:19.355Z,27.42
2023-04-22T10:59:50.656Z,27.46
2023-04-22T11:02:19.997Z,27.39
2023-04-22T11:04:48.661Z,27.38
2023-04-22T11:07:30.872Z,27.39
2023-04-22T11:10:01.682Z,27.44
2023-04-22T11:12:36.032Z,27.41
2023-04-22T11:15:12.085Z,27.40
2023-04-22T11:17:43.569Z,27.40
2023-04-22T11:20:18.670Z,27.38
2023-04-22T11:22:49.538Z,27.39
2023-04-22T11:25:17.978Z,27.38
2023-04-22T11:27:46.522Z,27.37
2023-04-22T11:30:15.860Z,27.36
2023-04-22T11:32:46.250Z,27.37
2023-04-22T11:35:27.154Z,27.37
2023-04-22T11:38:03.117Z,27.41
2023-04-22T11:40:35.840Z,27.39
2023-04-22T11:43:07.906Z,27.39
2023-04-22T11:45:38.276Z,27.37
2023-04-22T11:48:08.414Z,27.34
2023-04-22T11:50:38.494Z,27.36
2023-04-22T11:53:17.848Z,27.32
2023-04-22T11:55:48.142Z,27.35
2023-04-22T11:58:27.588Z,27.30
2023-04-22T12:00:58.785Z,27.33
2023-04-22T12:03:28.902Z,27.29
2023-04-22T12:05:59.359Z,27.29
2023-04-22T12:08:42.248Z,27.28
2023-04-22T12:11:12.395Z,27.34
2023-04-22T12:13:43.888Z,27.27
2023-04-22T12:16:22.360Z,27.27
2023-04-22T12:18:52.276Z,27.35
2023-04-22T12:21:25.237Z,27.37
2023-04-22T12:23:55.304Z,27.46
2023-04-22T12:26:26.391Z,27.59
2023-04-22T12:28:56.961Z,27.70
2023-04-22T12:31:25.536Z,27.86
2023-04-22T12:33:54.266Z,27.95
2023-04-22T12:36:23.572Z,28.07
2023-04-22T12:38:51.852Z,28.13
2023-04-22T12:41:20.089Z,28.21
2023-04-22T12:43:48.497Z,28.26
2023-04-22T12:46:16.913Z,28.31
2023-04-22T12:48:45.129Z,28.37
2023-04-22T12:51:13.398Z,28.42
2023-04-22T12:53:41.714Z,28.44
2023-04-22T12:56:09.910Z,28.48
2023-04-22T12:58:38.072Z,28.49
2023-04-22T13:01:06.417Z,28.52
2023-04-22T13:03:34.774Z,28.55
2023-04-22T13:06:03.136Z,28.51
2023-04-22T13:08:31.390Z,28.49
2023-04-22T13:11:00.423Z,28.48
2023-04-22T13:13:28.574Z,28.44
2023-04-22T13:15:57.181Z,28.43
2023-04-22T13:18:25.457Z,28.38
2023-04-22T13:20:56.931Z,28.36
2023-04-22T13:23:26.053Z,28.32
2023-04-22T13:25:54.931Z,28.30
2023-04-22T13:28:23.294Z,28.23
2023-04-22T13:30:51.840Z,28.19
2023-04-22T13:33:20.005Z,28.16
2023-04-22T13:35:48.165Z,28.10
2023-04-22T13:38:16.513Z,28.05
2023-04-22T13:40:44.657Z,28.01
2023-04-22T13:43:12.825Z,27.99
2023-04-22T13:45:42.553Z,27.94
2023-04-22T13:48:11.094Z,27.93
2023-04-22T13:50:42.802Z,27.90
2023-04-22T13:53:12.388Z,27.86
2023-04-22T13:55:41.022Z,27.80
2023-04-22T13:58:09.199Z,27.74
2023-04-22T14:00:38.181Z,27.70
2023-04-22T14:03:06.666Z,27.67
2023-04-22T14:05:36.109Z,27.63
2023-04-22T14:08:04.581Z,27.58
2023-04-22T14:10:32.955Z,27.55
2023-04-22T14:13:01.228Z,27.52
2023-04-22T14:15:29.408Z,27.49
2023-04-22T14:17:57.726Z,27.48
2023-04-22T14:20:26.121Z,27.46
2023-04-22T14:22:54.388Z,27.44
2023-04-22T14:25:22.799Z,27.43
2023-04-22T14:27:51.007Z,27.41
2023-04-22T14:30:20.487Z,27.40
2023-04-22T14:32:49.560Z,27.38
2023-04-22T14:35:18.320Z,27.36
2023-04-22T14:37:46.609Z,27.35
2023-04-22T14:40:14.919Z,27.35
2023-04-22T14:42:43.089Z,27.34
2023-04-22T14:45:11.674Z,27.32
2023-04-22T14:47:39.751Z,27.31
2023-04-22T14:50:08.207Z,27.29
2023-04-22T14:52:36.423Z,27.27
2023-04-22T14:55:15.429Z,27.25
2023-04-22T14:57:56.856Z,27.34
2023-04-22T15:00:26.493Z,27.30
2023-04-22T15:02:55.234Z,27.31
2023-04-22T15:05:23.801Z,27.36
2023-04-22T15:07:51.933Z,27.46
2023-04-22T15:10:21.931Z,27.64
2023-04-22T15:12:50.636Z,27.80
2023-04-22T15:15:18.852Z,27.93
2023-04-22T15:17:46.978Z,28.05
2023-04-22T15:20:15.594Z,28.15
2023-04-22T15:22:44.459Z,28.25
2023-04-22T15:25:12.846Z,28.31
2023-04-22T15:27:41.349Z,28.39
2023-04-22T15:30:11.229Z,28.43
2023-04-22T15:32:39.457Z,28.48
2023-04-22T15:35:08.458Z,28.49
2023-04-22T15:37:36.743Z,28.51
2023-04-22T15:40:06.962Z,28.51
2023-04-22T15:42:35.090Z,28.51
2023-04-22T15:45:04.088Z,28.53
2023-04-22T15:47:34.885Z,28.51
2023-04-22T15:50:06.729Z,28.47
2023-04-22T15:52:35.856Z,28.44
2023-04-22T15:55:05.153Z,28.40
2023-04-22T15:57:35.386Z,28.39
2023-04-22T16:00:13.467Z,28.35
2023-04-22T16:02:43.622Z,28.32
2023-04-22T16:05:12.666Z,28.26
2023-04-22T16:07:40.936Z,28.20
2023-04-22T16:10:09.887Z,28.16
2023-04-22T16:12:38.122Z,28.12
2023-04-22T16:15:07.313Z,28.07
2023-04-22T16:17:35.835Z,28.02
2023-04-22T16:20:06.272Z,27.95
2023-04-22T16:22:34.544Z,27.90
2023-04-22T16:25:02.767Z,27.84
2023-04-22T16:27:31.051Z,27.79
2023-04-22T16:29:59.203Z,27.75
2023-04-22T16:32:27.471Z,27.70
2023-04-22T16:34:56.209Z,27.65
2023-04-22T16:37:25.259Z,27.61
2023-04-22T16:39:53.511Z,27.58
2023-04-22T16:42:21.868Z,27.52
2023-04-22T16:44:51.460Z,27.47
2023-04-22T16:47:20.085Z,27.42
2023-04-22T16:49:48.274Z,27.39
2023-04-22T16:52:16.531Z,27.37
2023-04-22T16:54:45.257Z,27.35
2023-04-22T16:57:13.432Z,27.31
2023-04-22T16:59:41.922Z,27.28
2023-04-22T17:02:10.465Z,27.25
2023-04-22T17:04:38.908Z,27.23
2023-04-22T17:07:07.027Z,27.23
2023-04-22T17:09:35.227Z,27.26
2023-04-22T17:12:03.475Z,27.29
2023-04-22T17:14:32.247Z,27.34
2023-04-22T17:17:00.390Z,27.40
2023-04-22T17:19:28.638Z,27.52
2023-04-22T17:21:56.828Z,27.65
2023-04-22T17:24:25.156Z,27.78
2023-04-22T17:26:53.462Z,27.91
2023-04-22T17:29:21.699Z,28.01
2023-04-22T17:31:50.860Z,28.09
2023-04-22T17:34:19.198Z,28.16
2023-04-22T17:36:47.352Z,28.20
2023-04-22T17:39:15.508Z,28.24
2023-04-22T17:41:44.309Z,28.29
2023-04-22T17:44:12.502Z,28.30
2023-04-22T17:46:41.792Z,28.32
2023-04-22T17:49:10.069Z,28.34
2023-04-22T17:51:38.202Z,28.31
2023-04-22T17:54:06.704Z,28.30
2023-04-22T17:56:35.630Z,28.27
2023-04-22T17:59:03.756Z,28.24
2023-04-22T18:01:32.282Z,28.19
2023-04-22T18:04:00.701Z,28.16
2023-04-22T18:06:29.273Z,28.13
2023-04-22T18:08:57.427Z,28.08
2023-04-22T18:11:25.999Z,28.06
2023-04-22T18:13:54.623Z,28.01
2023-04-22T18:16:22.823Z,27.95
2023-04-22T18:18:50.981Z,27.93
2023-04-22T18:21:19.122Z,27.88
2023-04-22T18:23:47.379Z,27.82
2023-04-22T18:26:15.755Z,27.76
2023-04-22T18:28:44.799Z,27.70
2023-04-22T18:31:13.045Z,27.68
2023-04-22T18:33:41.414Z,27.63
2023-04-22T18:36:09.730Z,27.56
2023-04-22T18:38:39.006Z,27.51
2023-04-22T18:41:07.274Z,27.45
2023-04-22T18:43:35.962Z,27.40
2023-04-22T18:46:04.361Z,27.35
2023-04-22T18:48:32.656Z,27.32
2023-04-22T18:51:00.819Z,27.27
2023-04-22T18:53:29.027Z,27.23
2023-04-22T18:55:57.080Z,27.21
2023-04-22T18:58:25.213Z,27.17
2023-04-22T19:00:53.455Z,27.13
2023-04-22T19:03:22.124Z,27.09
2023-04-22T19:05:51.199Z,27.06
2023-04-22T19:08:19.345Z,27.06
2023-04-22T19:10:47.612Z,27.08
2023-04-22T19:13:28.715Z,27.11
2023-04-22T19:15:58.586Z,27.29
2023-04-22T19:18:26.924Z,27.36
2023-04-22T19:20:55.149Z,27.50
2023-04-22T19:23:23.605Z,27.64
2023-04-22T19:25:52.073Z,27.77
2023-04-22T19:28:20.312Z,27.89
2023-04-22T19:30:48.595Z,27.98
2023-04-22T19:33:16.930Z,28.04
2023-04-22T19:35:45.920Z,28.10
2023-04-22T19:38:19.188Z,28.14
2023-04-22T19:40:47.682Z,28.17
2023-04-22T19:43:17.220Z,28.19
2023-04-22T19:45:48.806Z,28.20
2023-04-22T19:48:17.296Z,28.19
2023-04-22T19:50:46.370Z,28.18
2023-04-22T19:53:14.943Z,28.14
2023-04-22T19:55:43.868Z,28.11
2023-04-22T19:58:12.583Z,28.07
2023-04-22T20:00:42.717Z,28.01
2023-04-22T20:03:13.603Z,27.97
2023-04-22T20:05:43.844Z,27.95
2023-04-22T20:08:12.526Z,27.89
2023-04-22T20:10:41.507Z,27.86
2023-04-22T20:13:09.692Z,27.81
2023-04-22T20:15:38.375Z,27.74
2023-04-22T20:18:06.939Z,27.70
2023-04-22T20:20:35.238Z,27.64
2023-04-22T20:23:10.025Z,27.58
2023-04-22T20:25:39.799Z,27.55
2023-04-22T20:28:08.398Z,27.50
2023-04-22T20:30:36.936Z,27.46
2023-04-22T20:33:05.558Z,27.40
2023-04-22T20:35:36.096Z,27.35
2023-04-22T20:38:04.881Z,27.32
2023-04-22T20:40:34.113Z,27.28
2023-04-22T20:43:02.738Z,27.24
2023-04-22T20:45:31.433Z,27.19
2023-04-22T20:47:59.699Z,27.15
2023-04-22T20:50:33.494Z,27.09
2023-04-22T20:53:03.855Z,27.05
2023-04-22T20:55:31.972Z,27.02
2023-04-22T20:58:00.285Z,27.04
2023-04-22T21:00:28.823Z,27.08
2023-04-22T21:02:57.349Z,27.20
2023-04-22T21:05:27.565Z,27.32
2023-04-22T21:07:56.191Z,27.48
2023-04-22T21:10:25.346Z,27.62
2023-04-22T21:12:54.632Z,27.77
2023-04-22T21:15:22.984Z,27.88
2023-04-22T21:17:55.165Z,27.98
2023-04-22T21:20:25.333Z,28.06
2023-04-22T21:22:54.346Z,28.09
2023-04-22T21:25:23.295Z,28.13
2023-04-22T21:27:51.671Z,28.15
2023-04-22T21:30:20.224Z,28.17
2023-04-22T21:32:48.423Z,28.15
2023-04-22T21:35:16.752Z,28.15
2023-04-22T21:37:44.861Z,28.17
2023-04-22T21:40:13.485Z,28.20
2023-04-22T21:42:41.854Z,28.22
2023-04-22T21:45:10.468Z,28.26
2023-04-22T21:47:38.627Z,28.28
2023-04-22T21:50:07.351Z,28.27
2023-04-22T21:52:35.518Z,28.30
2023-04-22T21:55:04.025Z,28.28
2023-04-22T21:57:32.435Z,28.27
2023-04-22T22:00:00.773Z,28.26
2023-04-22T22:02:29.130Z,28.24
2023-04-22T22:04:57.594Z,28.21
2023-04-22T22:07:27.064Z,28.21
2023-04-22T22:09:55.330Z,28.20
2023-04-22T22:12:23.537Z,28.15
2023-04-22T22:14:51.592Z,28.14
2023-04-22T22:17:19.879Z,28.12
2023-04-22T22:19:48.858Z,28.09
2023-04-22T22:22:17.089Z,28.06
2023-04-22T22:24:45.710Z,28.05
2023-04-22T22:27:13.904Z,28.02
2023-04-22T22:29:41.981Z,28.00
2023-04-22T22:32:10.311Z,27.97
2023-04-22T22:34:38.826Z,27.94
2023-04-22T22:37:07.221Z,27.92
2023-04-22T22:39:35.717Z,27.88
2023-04-22T22:42:03.977Z,27.87
2023-04-22T22:44:32.063Z,27.85
2023-04-22T22:47:00.309Z,27.81
2023-04-22T22:49:28.501Z,27.77
2023-04-22T22:51:56.732Z,27.76
2023-04-22T22:54:24.849Z,27.75
2023-04-22T22:56:53.114Z,27.71
2023-04-22T22:59:21.232Z,27.71
2023-04-22T23:01:49.738Z,27.67
2023-04-22T23:04:18.061Z,27.64
2023-04-22T23:06:46.435Z,27.62
2023-04-22T23:09:19.062Z,27.60
2023-04-22T23:11:49.409Z,27.58
2023-04-22T23:14:24.387Z,27.55
2023-04-22T23:16:52.954Z,27.54
2023-04-22T23:19:21.390Z,27.50
2023-04-22T23:21:50.027Z,27.47
2023-04-22T23:24:18.468Z,27.44
2023-04-22T23:26:46.760Z,27.48
2023-04-22T23:29:15.339Z,27.52
2023-04-22T23:31:44.481Z,27.60
2023-04-22T23:34:13.099Z,27.69
2023-04-22T23:36:41.627Z,27.83
2023-04-22T23:39:09.921Z,27.99
2023-04-22T23:41:38.039Z,28.13
2023-04-22T23:44:06.790Z,28.27
2023-04-22T23:46:35.165Z,28.38
2023-04-22T23:49:03.437Z,28.49
2023-04-22T23:51:31.704Z,28.55
2023-04-22T23:54:00.835Z,28.60
2023-04-22T23:56:29.231Z,28.66
2023-04-22T23:58:57.861Z,28.69
